createdAt,value
2023-01-19T00:03:28.652Z,0.85
2023-01-19T00:08:31.224Z,0.96
2023-01-19T00:13:33.858Z,0.95
2023-01-19T00:18:36.402Z,0.93
2023-01-19T00:23:39.171Z,1.03
2023-01-19T00:28:42.438Z,0.99
2023-01-19T00:33:48.900Z,1.04
2023-01-19T00:38:51.532Z,1.03
2023-01-19T00:43:54.135Z,1.00
2023-01-19T00:48:56.681Z,0.94
2023-01-19T00:54:05.072Z,0.88
2023-01-19T00:59:07.737Z,0.89
2023-01-19T01:04:12.274Z,0.94
2023-01-19T01:09:14.848Z,0.88
2023-01-19T01:14:17.717Z,0.83
2023-01-19T01:19:21.488Z,0.84
2023-01-19T01:24:24.198Z,0.72
2023-01-19T01:29:26.828Z,0.95
2023-01-19T01:34:29.403Z,0.97
2023-01-19T01:39:31.953Z,0.97
2023-01-19T01:44:51.725Z,1.01
2023-01-19T01:50:00.725Z,1.02
2023-01-19T01:55:07.239Z,1.02
2023-01-19T02:00:11.341Z,1.03
2023-01-19T02:05:19.247Z,1.01
2023-01-19T02:10:40.266Z,1.00
2023-01-19T02:15:42.818Z,1.00
2023-01-19T02:21:07.652Z,1.02
2023-01-19T02:26:14.312Z,0.97
2023-01-19T02:31:17.805Z,0.86
2023-01-19T02:36:26.017Z,0.69
2023-01-19T02:41:34.649Z,0.80
2023-01-19T02:46:38.451Z,0.89
2023-01-19T02:51:44.216Z,0.93
2023-01-19T02:56:53.246Z,0.96
2023-01-19T03:02:23.367Z,0.97
2023-01-19T03:07:47.096Z,1.01
2023-01-19T03:13:22.705Z,1.13
2023-01-19T03:18:29.809Z,1.02
2023-01-19T03:23:34.806Z,0.91
2023-01-19T03:28:40.280Z,1.10
2023-01-19T03:33:49.522Z,1.10
2023-01-19T03:38:53.535Z,1.13
2023-01-19T03:43:57.859Z,1.15
2023-01-19T03:49:00.784Z,1.10
2023-01-19T03:54:05.679Z,0.85
2023-01-19T03:59:08.251Z,1.09
2023-01-19T04:04:10.805Z,1.02
2023-01-19T04:09:13.626Z,1.01
2023-01-19T04:14:16.211Z,0.99
2023-01-19T04:19:18.865Z,1.13
2023-01-19T04:24:22.113Z,1.07
2023-01-19T04:29:25.316Z,1.12
2023-01-19T04:34:27.941Z,1.08
2023-01-19T04:39:31.110Z,1.13
2023-01-19T04:44:33.819Z,1.12
2023-01-19T04:49:39.367Z,1.15
2023-01-19T04:54:41.924Z,1.15
2023-01-19T04:59:44.620Z,1.18
2023-01-19T05:04:47.150Z,1.25
2023-01-19T05:09:49.816Z,1.28
2023-01-19T05:14:52.384Z,1.21
2023-01-19T05:19:54.985Z,1.30
2023-01-19T05:24:58.113Z,1.25
2023-01-19T05:30:05.046Z,1.37
2023-01-19T05:35:08.248Z,1.47
2023-01-19T05:40:11.715Z,1.46
2023-01-19T05:45:15.553Z,1.41
2023-01-19T05:50:18.160Z,1.41
2023-01-19T05:55:21.198Z,1.45
2023-01-19T06:00:24.680Z,1.54
2023-01-19T06:05:27.520Z,1.59
2023-01-19T06:10:30.108Z,1.58
2023-01-19T06:15:32.672Z,1.67
2023-01-19T06:20:36.444Z,1.73
2023-01-19T06:25:39.257Z,1.64
2023-01-19T06:30:41.895Z,1.79
2023-01-19T06:35:48.882Z,1.78
2023-01-19T06:41:02.838Z,1.77
2023-01-19T06:46:06.158Z,1.80
2023-01-19T06:51:08.689Z,1.93
2023-01-19T06:56:11.374Z,2.03
2023-01-19T07:01:14.498Z,2.05
2023-01-19T07:06:17.081Z,2.11
2023-01-19T07:11:24.773Z,2.06
2023-01-19T07:16:32.707Z,2.13
2023-01-19T07:21:35.326Z,2.27
2023-01-19T07:26:37.954Z,2.19
2023-01-19T07:31:40.544Z,2.30
2023-01-19T07:36:44.173Z,2.32
2023-01-19T07:41:48.815Z,2.45
2023-01-19T07:46:51.439Z,2.38
2023-01-19T07:51:56.380Z,2.32
2023-01-19T07:57:00.702Z,2.34
2023-01-19T08:02:03.488Z,2.51
2023-01-19T08:07:07.743Z,2.49
2023-01-19T08:12:10.290Z,2.55
2023-01-19T08:17:14.108Z,2.57
2023-01-19T08:22:16.769Z,2.56
2023-01-19T08:27:19.281Z,2.55
2023-01-19T08:32:21.886Z,2.60
2023-01-19T08:37:24.906Z,2.53
2023-01-19T08:42:28.193Z,2.74
2023-01-19T08:47:30.831Z,2.81
2023-01-19T08:52:33.467Z,2.69
2023-01-19T08:57:36.183Z,2.75
2023-01-19T09:02:38.768Z,2.77
2023-01-19T09:07:41.860Z,2.67
2023-01-19T09:12:45.144Z,2.91
2023-01-19T09:17:47.742Z,2.74
2023-01-19T09:22:50.401Z,2.80
2023-01-19T09:27:53.211Z,2.71
2023-01-19T09:32:55.771Z,2.72
2023-01-19T09:37:59.204Z,2.77
2023-01-19T09:43:22.801Z,2.88
2023-01-19T09:48:57.904Z,2.83
2023-01-19T09:54:06.570Z,2.79
2023-01-19T09:59:30.392Z,2.69
2023-01-19T10:04:54.641Z,2.79
2023-01-19T10:10:03.226Z,2.83
2023-01-19T10:15:37.744Z,2.84
2023-01-19T10:21:11.973Z,2.95
2023-01-19T10:26:23.503Z,3.09
2023-01-19T10:31:26.219Z,3.06
2023-01-19T10:36:39.966Z,2.97
2023-01-19T10:41:53.739Z,3.13
2023-01-19T10:46:58.834Z,3.10
2023-01-19T10:52:02.563Z,3.04
2023-01-19T10:57:09.280Z,3.10
2023-01-19T11:02:31.674Z,3.31
2023-01-19T11:07:35.142Z,3.27
2023-01-19T11:12:45.987Z,3.10
2023-01-19T11:17:50.433Z,3.08
2023-01-19T11:23:05.704Z,3.13
2023-01-19T11:28:20.843Z,2.98
2023-01-19T11:33:50.576Z,2.73
2023-01-19T11:38:56.137Z,2.71
2023-01-19T11:44:12.115Z,2.69
2023-01-19T11:49:27.539Z,2.77
2023-01-19T11:54:36.137Z,2.67
2023-01-19T11:59:38.701Z,2.72
2023-01-19T12:04:44.586Z,2.79
2023-01-19T12:09:53.178Z,2.72
2023-01-19T12:15:08.786Z,2.65
2023-01-19T12:20:35.599Z,2.75
2023-01-19T12:25:53.952Z,2.70
2023-01-19T12:30:59.748Z,2.79
2023-01-19T12:36:17.395Z,2.76
2023-01-19T12:41:19.864Z,2.63
2023-01-19T12:46:30.299Z,2.63
2023-01-19T12:51:33.409Z,2.41
2023-01-19T12:56:38.676Z,2.52
2023-01-19T13:01:41.315Z,2.50
2023-01-19T13:06:49.897Z,2.50
2023-01-19T13:12:21.397Z,2.36
2023-01-19T13:17:28.556Z,2.34
2023-01-19T13:22:51.378Z,2.39
2023-01-19T13:27:57.088Z,2.41
2023-01-19T13:33:19.770Z,2.53
2023-01-19T13:38:24.333Z,2.45
2023-01-19T13:43:36.662Z,2.27
2023-01-19T13:48:39.746Z,2.01
2023-01-19T13:53:53.973Z,2.25
2023-01-19T13:59:12.733Z,2.19
2023-01-19T14:04:32.676Z,2.12
2023-01-19T14:09:35.908Z,2.05
2023-01-19T14:14:38.875Z,2.03
2023-01-19T14:19:51.910Z,2.06
2023-01-19T14:24:54.605Z,2.11
2023-01-19T14:30:21.494Z,2.02
2023-01-19T14:35:25.850Z,2.00
2023-01-19T14:40:29.768Z,1.93
2023-01-19T14:45:43.291Z,2.01
2023-01-19T14:51:02.038Z,2.15
2023-01-19T14:56:06.908Z,1.94
2023-01-19T15:01:09.604Z,1.88
2023-01-19T15:06:15.659Z,1.68
2023-01-19T15:11:22.277Z,1.59
2023-01-19T15:16:27.490Z,1.63
2023-01-19T15:21:30.209Z,1.78
2023-01-19T15:26:33.061Z,1.71
2023-01-19T15:31:36.154Z,1.81
2023-01-19T15:36:38.913Z,1.68
2023-01-19T15:41:41.576Z,1.32
2023-01-19T15:46:44.328Z,1.48
2023-01-19T15:51:46.885Z,1.55
2023-01-19T15:56:49.540Z,1.55
2023-01-19T16:01:52.588Z,1.48
2023-01-19T16:06:55.232Z,1.43
2023-01-19T16:11:57.838Z,1.33
2023-01-19T16:17:01.833Z,1.40
2023-01-19T16:22:05.690Z,1.46
2023-01-19T16:27:08.995Z,1.40
2023-01-19T16:32:11.600Z,1.40
2023-01-19T16:37:14.326Z,1.25
2023-01-19T16:42:17.065Z,1.21
2023-01-19T16:47:19.626Z,1.35
2023-01-19T16:52:24.872Z,1.25
2023-01-19T16:57:27.398Z,1.14
2023-01-19T17:02:30.096Z,1.12
2023-01-19T17:07:32.740Z,1.26
2023-01-19T17:12:35.324Z,1.29
2023-01-19T17:17:38.142Z,1.22
2023-01-19T17:22:40.860Z,1.31
2023-01-19T17:27:43.390Z,1.26
2023-01-19T17:32:46.063Z,1.26
2023-01-19T17:37:48.743Z,1.29
2023-01-19T17:42:51.506Z,1.26
2023-01-19T17:47:54.044Z,1.26
2023-01-19T17:52:56.701Z,1.26
2023-01-19T17:58:00.425Z,1.28
2023-01-19T18:03:04.167Z,1.19
2023-01-19T18:08:06.850Z,1.44
2023-01-19T18:13:09.364Z,1.40
2023-01-19T18:18:11.973Z,1.43
2023-01-19T18:23:14.630Z,1.42
2023-01-19T18:28:17.259Z,1.41
2023-01-19T18:33:20.218Z,1.26
2023-01-19T18:38:22.821Z,1.25
2023-01-19T18:43:25.502Z,1.19
2023-01-19T18:48:28.061Z,1.25
2023-01-19T18:53:31.626Z,1.47
2023-01-19T18:58:37.139Z,1.44
2023-01-19T19:03:39.766Z,1.50
2023-01-19T19:08:44.228Z,1.57
2023-01-19T19:13:50.942Z,1.60
2023-01-19T19:18:53.666Z,1.60
2023-01-19T19:23:58.622Z,1.64
2023-01-19T19:29:01.784Z,1.51
2023-01-19T19:34:04.531Z,1.60
2023-01-19T19:39:07.094Z,1.53
2023-01-19T19:44:15.558Z,1.36
2023-01-19T19:49:21.470Z,1.55
2023-01-19T19:54:24.095Z,1.58
2023-01-19T19:59:26.613Z,1.36
2023-01-19T20:04:29.273Z,1.63
2023-01-19T20:09:32.879Z,1.58
2023-01-19T20:14:35.429Z,1.50
2023-01-19T20:19:38.112Z,1.44
2023-01-19T20:24:40.792Z,1.54
2023-01-19T20:29:43.481Z,1.44
2023-01-19T20:34:46.098Z,1.51
2023-01-19T20:39:48.941Z,1.49
2023-01-19T20:44:51.976Z,1.45
2023-01-19T20:49:54.618Z,1.52
2023-01-19T20:54:57.232Z,1.55
2023-01-19T20:59:59.839Z,1.57
2023-01-19T21:05:02.533Z,1.67
2023-01-19T21:10:05.899Z,1.74
2023-01-19T21:15:09.253Z,1.79
2023-01-19T21:20:12.220Z,1.79
2023-01-19T21:25:15.064Z,1.94
2023-01-19T21:30:18.916Z,1.92
2023-01-19T21:35:21.741Z,1.93
2023-01-19T21:40:24.271Z,1.96
2023-01-19T21:45:26.845Z,1.95
2023-01-19T21:50:29.439Z,1.96
2023-01-19T21:55:32.526Z,1.96
2023-01-19T22:00:35.134Z,2.05
2023-01-19T22:05:37.891Z,1.98
2023-01-19T22:10:40.413Z,1.95
2023-01-19T22:15:42.946Z,2.05
2023-01-19T22:20:45.477Z,2.00
2023-01-19T22:25:47.985Z,1.89
2023-01-19T22:30:50.724Z,2.12
2023-01-19T22:35:53.359Z,2.15
2023-01-19T22:40:56.157Z,2.14
2023-01-19T22:45:59.164Z,2.23
2023-01-19T22:51:01.804Z,2.20
2023-01-19T22:56:18.446Z,2.25
2023-01-19T23:01:29.173Z,2.21
2023-01-19T23:06:34.722Z,2.11
2023-01-19T23:11:40.430Z,2.20
2023-01-19T23:16:43.068Z,2.11
2023-01-19T23:21:45.886Z,2.17
2023-01-19T23:26:51.285Z,2.23
2023-01-19T23:31:56.044Z,2.32
2023-01-19T23:36:58.572Z,2.40
2023-01-19T23:42:01.171Z,2.37
2023-01-19T23:47:03.682Z,2.44
2023-01-19T23:52:06.218Z,2.44
2023-01-19T23:57:08.738Z,2.45
